createdAt,value
2023-03-06T00:00:03.058Z,29.40
2023-03-06T00:01:02.900Z,29.40
2023-03-06T00:02:02.463Z,28.10
2023-03-06T00:03:01.872Z,28.10
2023-03-06T00:04:02.058Z,28.10
2023-03-06T00:05:01.917Z,28.10
2023-03-06T00:06:02.302Z,28.10
2023-03-06T00:07:02.519Z,29.20
2023-03-06T00:08:02.263Z,29.20
2023-03-06T00:09:02.715Z,29.20
2023-03-06T00:10:02.272Z,29.20
2023-03-06T00:11:02.787Z,29.20
2023-03-06T00:12:02.796Z,29.20
2023-03-06T00:13:02.535Z,29.20
2023-03-06T00:14:02.916Z,29.20
2023-03-06T00:15:05.178Z,29.20
2023-03-06T00:16:02.518Z,29.20
2023-03-06T00:17:02.445Z,30.00
2023-03-06T00:18:02.261Z,30.00
2023-03-06T00:19:02.664Z,30.00
2023-03-06T00:20:02.172Z,30.00
2023-03-06T00:21:02.035Z,30.00
2023-03-06T00:22:03.142Z,28.30
2023-03-06T00:23:02.623Z,28.30
2023-03-06T00:24:02.518Z,28.30
2023-03-06T00:25:02.762Z,28.30
2023-03-06T00:26:03.091Z,28.30
2023-03-06T00:27:02.671Z,27.40
2023-03-06T00:28:03.159Z,27.40
2023-03-06T00:29:02.992Z,27.40
2023-03-06T00:30:03.183Z,27.40
2023-03-06T00:31:02.868Z,27.40
2023-03-06T00:32:01.717Z,25.50
2023-03-06T00:33:01.861Z,25.50
2023-03-06T00:34:02.148Z,25.50
2023-03-06T00:35:02.285Z,25.50
2023-03-06T00:36:01.728Z,25.50
2023-03-06T00:37:02.137Z,19.30
2023-03-06T00:38:02.551Z,19.30
2023-03-06T00:39:02.756Z,19.30
2023-03-06T00:40:02.242Z,19.30
2023-03-06T00:41:02.669Z,19.30
2023-03-06T00:42:03.097Z,14.80
2023-03-06T00:43:02.459Z,14.80
2023-03-06T00:44:02.717Z,14.80
2023-03-06T00:45:02.393Z,14.80
2023-03-06T00:46:02.788Z,14.80
2023-03-06T00:47:03.228Z,11.80
2023-03-06T00:48:02.622Z,11.80
2023-03-06T00:49:02.993Z,11.80
2023-03-06T00:50:02.732Z,11.80
2023-03-06T00:51:03.033Z,11.80
2023-03-06T00:52:02.305Z,12.20
2023-03-06T00:53:01.739Z,12.20
2023-03-06T00:54:02.120Z,12.20
2023-03-06T00:55:01.771Z,12.20
2023-03-06T00:56:01.939Z,12.20
2023-03-06T00:57:02.844Z,12.10
2023-03-06T00:58:02.279Z,12.10
2023-03-06T00:59:02.596Z,12.10
2023-03-06T01:00:02.302Z,12.10
2023-03-06T01:01:02.732Z,12.10
2023-03-06T01:02:03.140Z,12.50
2023-03-06T01:03:03.043Z,12.50
2023-03-06T01:04:03.012Z,12.50
2023-03-06T01:05:02.684Z,12.50
2023-03-06T01:06:02.957Z,12.50
2023-03-06T01:07:02.670Z,10.10
2023-03-06T01:08:02.943Z,10.10
2023-03-06T01:09:02.622Z,10.10
2023-03-06T01:10:02.937Z,10.10
2023-03-06T01:11:02.604Z,10.10
2023-03-06T01:12:03.521Z,11.50
2023-03-06T01:13:03.611Z,11.50
2023-03-06T01:14:02.971Z,11.50
2023-03-06T01:15:03.277Z,11.50
2023-03-06T01:16:03.628Z,11.50
2023-03-06T01:17:02.028Z,10.10
2023-03-06T01:18:02.323Z,10.10
2023-03-06T01:19:02.437Z,10.10
2023-03-06T01:20:02.162Z,10.10
2023-03-06T01:21:02.375Z,10.10
2023-03-06T01:22:02.737Z,11.20
2023-03-06T01:23:03.014Z,11.20
2023-03-06T01:24:02.704Z,11.20
2023-03-06T01:25:03.019Z,11.20
2023-03-06T01:26:02.650Z,11.20
2023-03-06T01:27:02.974Z,12.20
2023-03-06T01:28:03.385Z,12.20
2023-03-06T01:29:03.005Z,12.20
2023-03-06T01:30:03.358Z,12.20
2023-03-06T01:31:02.977Z,12.20
2023-03-06T01:32:02.579Z,11.70
2023-03-06T01:33:02.333Z,11.70
2023-03-06T01:34:02.668Z,11.70
2023-03-06T01:35:02.295Z,11.70
2023-03-06T01:36:02.620Z,11.70
2023-03-06T01:37:02.979Z,9.80
2023-03-06T01:38:03.273Z,9.80
2023-03-06T01:39:02.857Z,9.80
2023-03-06T01:40:03.124Z,9.80
2023-03-06T01:41:03.383Z,9.80
2023-03-06T01:42:02.676Z,9.70
2023-03-06T01:43:02.407Z,9.70
2023-03-06T01:44:02.738Z,9.70
2023-03-06T01:45:02.347Z,9.70
2023-03-06T01:46:02.661Z,9.70
2023-03-06T01:47:02.978Z,9.20
2023-03-06T01:48:03.281Z,9.20
2023-03-06T01:49:02.885Z,9.20
2023-03-06T01:50:03.188Z,9.20
2023-03-06T01:51:03.442Z,9.20
2023-03-06T01:52:02.662Z,12.90
2023-03-06T01:53:02.967Z,12.90
2023-03-06T01:54:02.373Z,12.90
2023-03-06T01:55:02.723Z,12.90
2023-03-06T01:56:02.368Z,12.90
2023-03-06T01:57:02.829Z,11.20
2023-03-06T01:58:03.101Z,11.20
2023-03-06T01:59:02.669Z,11.20
2023-03-06T02:00:02.559Z,11.20
2023-03-06T02:01:03.040Z,11.20
2023-03-06T02:02:03.054Z,10.10
2023-03-06T02:03:03.377Z,10.10
2023-03-06T02:04:03.042Z,10.10
2023-03-06T02:05:03.376Z,10.10
2023-03-06T02:06:02.963Z,10.10
2023-03-06T02:07:03.671Z,11.80
2023-03-06T02:08:03.115Z,11.80
2023-03-06T02:09:03.403Z,11.80
2023-03-06T02:10:03.517Z,11.80
2023-03-06T02:11:03.174Z,11.80
2023-03-06T02:12:02.970Z,12.10
2023-03-06T02:13:02.449Z,12.10
2023-03-06T02:14:02.818Z,12.10
2023-03-06T02:15:02.455Z,12.10
2023-03-06T02:16:02.840Z,12.10
2023-03-06T02:17:03.182Z,12.20
2023-03-06T02:18:02.885Z,12.20
2023-03-06T02:19:03.230Z,12.20
2023-03-06T02:20:03.449Z,12.20
2023-03-06T02:21:02.880Z,12.20
2023-03-06T02:22:03.277Z,11.40
2023-03-06T02:23:03.104Z,11.40
2023-03-06T02:24:03.531Z,11.40
2023-03-06T02:25:03.184Z,11.40
2023-03-06T02:26:03.579Z,11.40
2023-03-06T02:27:02.778Z,11.10
2023-03-06T02:28:03.018Z,11.10
2023-03-06T02:29:02.567Z,11.10
2023-03-06T02:30:02.997Z,11.10
2023-03-06T02:31:02.490Z,11.10
2023-03-06T02:32:02.985Z,12.20
2023-03-06T02:33:02.722Z,12.20
2023-03-06T02:34:03.050Z,12.20
2023-03-06T02:35:02.547Z,12.20
2023-03-06T02:36:03.017Z,12.20
2023-03-06T02:37:03.354Z,11.50
2023-03-06T02:38:03.024Z,11.50
2023-03-06T02:39:03.603Z,11.50
2023-03-06T02:40:02.980Z,11.50
2023-03-06T02:41:03.224Z,11.50
2023-03-06T02:42:02.590Z,13.00
2023-03-06T02:43:02.245Z,13.00
2023-03-06T02:44:02.576Z,13.00
2023-03-06T02:45:02.202Z,13.00
2023-03-06T02:46:02.572Z,13.00
2023-03-06T02:47:03.029Z,14.30
2023-03-06T02:48:02.634Z,14.30
2023-03-06T02:49:02.951Z,14.30
2023-03-06T02:50:02.565Z,14.30
2023-03-06T02:51:02.875Z,14.30
2023-03-06T02:52:03.410Z,11.30
2023-03-06T02:53:02.827Z,11.30
2023-03-06T02:54:03.020Z,11.30
2023-03-06T02:55:03.291Z,11.30
2023-03-06T02:56:02.962Z,11.30
2023-03-06T02:57:03.214Z,13.30
2023-03-06T02:58:02.876Z,13.30
2023-03-06T02:59:03.143Z,13.30
2023-03-06T03:00:03.475Z,13.30
2023-03-06T03:01:02.814Z,13.30
2023-03-06T03:02:02.992Z,12.80
2023-03-06T03:03:02.519Z,12.80
2023-03-06T03:04:02.796Z,12.80
2023-03-06T03:05:03.114Z,12.80
2023-03-06T03:06:03.132Z,12.80
2023-03-06T03:07:03.270Z,14.10
2023-03-06T03:08:02.918Z,14.10
2023-03-06T03:09:02.907Z,14.10
2023-03-06T03:10:03.228Z,14.10
2023-03-06T03:11:03.314Z,14.10
2023-03-06T03:12:03.503Z,15.00
2023-03-06T03:13:03.138Z,15.00
2023-03-06T03:14:03.451Z,15.00
2023-03-06T03:15:03.661Z,15.00
2023-03-06T03:16:03.098Z,15.00
2023-03-06T03:17:03.447Z,16.80
2023-03-06T03:18:03.528Z,16.80
2023-03-06T03:19:03.245Z,16.80
2023-03-06T03:20:03.514Z,16.80
2023-03-06T03:21:03.065Z,16.80
2023-03-06T03:22:03.154Z,16.90
2023-03-06T03:23:02.854Z,16.90
2023-03-06T03:24:03.164Z,16.90
2023-03-06T03:25:03.224Z,16.90
2023-03-06T03:26:02.658Z,16.90
2023-03-06T03:27:02.747Z,16.10
2023-03-06T03:28:02.449Z,16.10
2023-03-06T03:29:02.823Z,16.10
2023-03-06T03:30:02.242Z,16.10
2023-03-06T03:31:02.223Z,16.10
2023-03-06T03:32:03.304Z,19.70
2023-03-06T03:33:03.359Z,19.70
2023-03-06T03:34:03.185Z,19.70
2023-03-06T03:35:02.914Z,19.70
2023-03-06T03:36:03.263Z,19.70
2023-03-06T03:37:03.374Z,24.10
2023-03-06T03:38:02.891Z,24.10
2023-03-06T03:39:03.249Z,24.10
2023-03-06T03:40:03.381Z,24.10
2023-03-06T03:41:02.852Z,24.10
2023-03-06T03:42:03.102Z,24.00
2023-03-06T03:43:02.532Z,24.00
2023-03-06T03:44:02.897Z,24.00
2023-03-06T03:45:02.461Z,24.00
2023-03-06T03:46:02.834Z,24.00
2023-03-06T03:47:03.078Z,26.90
2023-03-06T03:48:02.843Z,26.90
2023-03-06T03:49:02.517Z,26.90
2023-03-06T03:50:02.812Z,26.90
2023-03-06T03:51:03.175Z,26.90
2023-03-06T03:52:02.170Z,27.70
2023-03-06T03:53:02.488Z,27.70
2023-03-06T03:54:02.693Z,27.70
2023-03-06T03:55:02.061Z,27.70
2023-03-06T03:56:02.505Z,27.70
2023-03-06T03:57:02.194Z,26.00
2023-03-06T03:58:02.247Z,26.00
2023-03-06T03:59:02.544Z,26.00
2023-03-06T04:00:02.161Z,26.00
2023-03-06T04:01:02.625Z,26.00
2023-03-06T04:02:02.825Z,25.80
2023-03-06T04:03:02.890Z,25.80
2023-03-06T04:04:02.295Z,25.80
2023-03-06T04:05:02.868Z,25.80
2023-03-06T04:06:02.297Z,25.80
2023-03-06T04:07:02.701Z,26.30
2023-03-06T04:08:02.636Z,26.30
2023-03-06T04:09:03.004Z,26.30
2023-03-06T04:10:02.958Z,26.30
2023-03-06T04:11:02.631Z,26.30
2023-03-06T04:12:02.042Z,27.80
2023-03-06T04:13:02.407Z,27.80
2023-03-06T04:14:02.095Z,27.80
2023-03-06T04:15:02.226Z,27.80
2023-03-06T04:16:01.975Z,27.80
2023-03-06T04:17:02.266Z,25.20
2023-03-06T04:18:02.342Z,25.20
2023-03-06T04:19:02.792Z,25.20
2023-03-06T04:20:02.190Z,25.20
2023-03-06T04:21:02.469Z,25.20
2023-03-06T04:22:03.048Z,25.80
2023-03-06T04:23:03.429Z,25.80
2023-03-06T04:24:02.961Z,25.80
2023-03-06T04:25:03.217Z,25.80
2023-03-06T04:26:03.032Z,25.80
2023-03-06T04:27:02.499Z,27.90
2023-03-06T04:28:02.490Z,27.90
2023-03-06T04:29:02.990Z,27.90
2023-03-06T04:30:02.471Z,27.90
2023-03-06T04:31:03.134Z,27.90
2023-03-06T04:32:02.723Z,29.00
2023-03-06T04:33:02.539Z,29.00
2023-03-06T04:34:02.479Z,29.00
2023-03-06T04:35:02.985Z,29.00
2023-03-06T04:36:02.729Z,29.00
2023-03-06T04:37:01.998Z,27.90
2023-03-06T04:38:02.479Z,27.90
2023-03-06T04:39:02.022Z,27.90
2023-03-06T04:40:02.411Z,27.90
2023-03-06T04:41:02.303Z,27.90
2023-03-06T04:42:02.770Z,30.50
2023-03-06T04:43:02.772Z,30.50
2023-03-06T04:44:03.142Z,30.50
2023-03-06T04:45:02.696Z,30.50
2023-03-06T04:46:03.185Z,30.50
2023-03-06T04:47:02.528Z,31.30
2023-03-06T04:48:02.854Z,31.30
2023-03-06T04:49:02.829Z,31.30
2023-03-06T04:50:02.213Z,31.30
2023-03-06T04:51:02.523Z,31.30
2023-03-06T04:52:02.223Z,29.60
2023-03-06T04:53:01.969Z,29.60
2023-03-06T04:54:02.437Z,29.60
2023-03-06T04:55:02.383Z,29.60
2023-03-06T04:56:01.859Z,29.60
2023-03-06T04:57:01.941Z,32.80
2023-03-06T04:58:02.313Z,32.80
2023-03-06T04:59:02.076Z,32.80
2023-03-06T05:00:02.490Z,32.80
2023-03-06T05:01:02.288Z,32.80
2023-03-06T05:02:02.742Z,32.00
2023-03-06T05:03:02.492Z,32.00
2023-03-06T05:04:02.923Z,32.00
2023-03-06T05:05:02.312Z,32.00
2023-03-06T05:06:02.509Z,32.00
2023-03-06T05:07:02.664Z,33.90
2023-03-06T05:08:02.922Z,33.90
2023-03-06T05:09:02.842Z,33.90
2023-03-06T05:10:02.614Z,33.90
2023-03-06T05:11:03.005Z,33.90
2023-03-06T05:12:03.074Z,36.80
2023-03-06T05:13:02.895Z,36.80
2023-03-06T05:14:03.004Z,36.80
2023-03-06T05:15:02.895Z,36.80
2023-03-06T05:16:03.335Z,36.80
2023-03-06T05:17:02.792Z,39.80
2023-03-06T05:18:02.329Z,39.80
2023-03-06T05:19:02.296Z,39.80
2023-03-06T05:20:02.802Z,39.80
2023-03-06T05:21:02.220Z,39.80
2023-03-06T05:22:03.234Z,37.20
2023-03-06T05:23:03.034Z,37.20
2023-03-06T05:24:03.429Z,37.20
2023-03-06T05:25:02.945Z,37.20
2023-03-06T05:26:03.353Z,37.20
2023-03-06T05:27:02.868Z,36.40
2023-03-06T05:28:02.846Z,36.40
2023-03-06T05:29:02.550Z,36.40
2023-03-06T05:30:03.004Z,36.40
2023-03-06T05:31:03.551Z,36.40
2023-03-06T05:32:03.309Z,36.60
2023-03-06T05:33:02.831Z,36.60
2023-03-06T05:34:02.610Z,36.60
2023-03-06T05:35:02.631Z,36.60
2023-03-06T05:36:02.802Z,36.60
2023-03-06T05:37:03.282Z,37.60
2023-03-06T05:38:03.103Z,37.60
2023-03-06T05:39:03.519Z,37.60
2023-03-06T05:40:03.577Z,37.60
2023-03-06T05:41:03.536Z,37.60
2023-03-06T05:42:03.068Z,39.00
2023-03-06T05:43:02.576Z,39.00
2023-03-06T05:44:02.836Z,39.00
2023-03-06T05:45:02.632Z,39.00
2023-03-06T05:46:02.574Z,39.00
2023-03-06T05:47:03.228Z,42.10
2023-03-06T05:48:02.719Z,42.10
2023-03-06T05:49:02.923Z,42.10
2023-03-06T05:50:03.190Z,42.10
2023-03-06T05:51:02.929Z,42.10
2023-03-06T05:52:03.222Z,42.30
2023-03-06T05:53:02.968Z,42.30
2023-03-06T05:54:03.421Z,42.30
2023-03-06T05:55:03.381Z,42.30
2023-03-06T05:56:02.889Z,42.30
2023-03-06T05:57:03.355Z,44.80
2023-03-06T05:58:03.181Z,44.80
2023-03-06T05:59:03.176Z,44.80
2023-03-06T06:00:03.021Z,44.80
2023-03-06T06:01:02.972Z,44.80
2023-03-06T06:02:03.479Z,42.50
2023-03-06T06:03:03.220Z,42.50
2023-03-06T06:04:03.024Z,42.50
2023-03-06T06:05:03.280Z,42.50
2023-03-06T06:06:03.008Z,46.00
2023-03-06T06:07:03.617Z,46.00
2023-03-06T06:08:03.110Z,46.00
2023-03-06T06:09:03.559Z,46.00
2023-03-06T06:10:03.869Z,46.00
2023-03-06T06:11:03.476Z,43.70
2023-03-06T06:12:02.871Z,43.70
2023-03-06T06:13:02.759Z,43.70
2023-03-06T06:14:02.920Z,43.70
2023-03-06T06:15:02.608Z,43.70
2023-03-06T06:16:02.827Z,47.80
2023-03-06T06:17:02.755Z,47.80
2023-03-06T06:18:02.813Z,47.80
2023-03-06T06:19:02.755Z,47.80
2023-03-06T06:20:03.064Z,47.80
2023-03-06T06:21:03.011Z,48.50
2023-03-06T06:22:03.068Z,48.50
2023-03-06T06:23:02.697Z,48.50
2023-03-06T06:24:02.976Z,48.50
2023-03-06T06:25:02.770Z,48.50
2023-03-06T06:26:03.117Z,47.70
2023-03-06T06:27:04.171Z,47.70
2023-03-06T06:28:03.722Z,47.70
2023-03-06T06:29:03.618Z,47.70
2023-03-06T06:30:03.355Z,47.70
2023-03-06T06:31:03.692Z,45.90
2023-03-06T06:32:02.222Z,45.90
2023-03-06T06:33:02.715Z,45.90
2023-03-06T06:34:02.765Z,45.90
2023-03-06T06:35:02.535Z,45.90
2023-03-06T06:36:02.433Z,47.90
2023-03-06T06:37:02.719Z,47.90
2023-03-06T06:38:03.183Z,47.90
2023-03-06T06:39:02.861Z,47.90
2023-03-06T06:40:02.950Z,47.90
2023-03-06T06:41:35.557Z,56.90
2023-03-06T06:42:25.883Z,56.90
2023-03-06T06:43:02.612Z,56.90
2023-03-06T06:44:02.775Z,56.90
2023-03-06T06:45:02.421Z,56.90
2023-03-06T06:46:32.097Z,50.90
2023-03-06T06:47:22.274Z,50.90
2023-03-06T06:48:02.742Z,50.90
2023-03-06T06:49:02.716Z,50.90
2023-03-06T06:50:02.703Z,50.90
2023-03-06T06:51:02.580Z,51.60
2023-03-06T06:52:02.407Z,51.60
2023-03-06T06:53:02.864Z,51.60
2023-03-06T06:54:02.529Z,51.60
2023-03-06T06:55:02.912Z,51.60
2023-03-06T06:56:02.969Z,55.00
2023-03-06T06:57:02.869Z,55.00
2023-03-06T06:58:03.089Z,55.00
2023-03-06T06:59:15.633Z,55.00
2023-03-06T07:00:03.051Z,55.00
2023-03-06T07:01:02.904Z,57.40
2023-03-06T07:02:02.166Z,57.40
2023-03-06T07:03:02.042Z,57.40
2023-03-06T07:04:02.296Z,57.40
2023-03-06T07:05:05.262Z,57.40
2023-03-06T07:06:02.191Z,57.60
2023-03-06T07:07:02.559Z,57.60
2023-03-06T07:08:03.096Z,57.60
2023-03-06T07:09:02.943Z,57.60
2023-03-06T07:10:02.851Z,57.60
2023-03-06T07:11:02.767Z,58.40
2023-03-06T07:12:03.109Z,58.40
2023-03-06T07:13:03.338Z,58.40
2023-03-06T07:14:03.408Z,58.40
2023-03-06T07:15:02.885Z,58.40
2023-03-06T07:16:02.963Z,57.80
2023-03-06T07:17:02.466Z,57.80
2023-03-06T07:18:02.914Z,57.80
2023-03-06T07:19:02.469Z,57.80
2023-03-06T07:20:02.308Z,57.80
2023-03-06T07:21:02.230Z,55.40
2023-03-06T07:22:02.910Z,55.40
2023-03-06T07:23:03.043Z,55.40
2023-03-06T07:24:03.230Z,55.40
2023-03-06T07:25:02.989Z,55.40
2023-03-06T07:26:02.788Z,59.80
2023-03-06T07:27:02.190Z,59.80
2023-03-06T07:28:02.898Z,59.80
2023-03-06T07:29:02.622Z,59.80
2023-03-06T07:30:02.442Z,59.80
2023-03-06T07:31:02.506Z,59.90
2023-03-06T07:32:02.994Z,59.90
2023-03-06T07:33:02.266Z,59.90
2023-03-06T07:34:04.946Z,59.90
2023-03-06T07:35:18.952Z,59.90
2023-03-06T07:36:02.403Z,57.60
2023-03-06T07:37:02.904Z,57.60
2023-03-06T07:38:02.488Z,57.60
2023-03-06T07:39:02.427Z,57.60
2023-03-06T07:40:02.786Z,57.60
2023-03-06T07:41:03.049Z,55.60
2023-03-06T07:42:02.320Z,55.60
2023-03-06T07:43:19.032Z,55.60
2023-03-06T07:44:02.548Z,55.60
2023-03-06T07:45:02.063Z,55.60
2023-03-06T07:46:02.018Z,53.80
2023-03-06T07:47:02.518Z,53.80
2023-03-06T07:48:04.420Z,53.80
2023-03-06T07:49:02.789Z,53.80
2023-03-06T07:50:02.602Z,53.80
2023-03-06T07:51:02.262Z,51.70
2023-03-06T07:52:02.115Z,51.70
2023-03-06T07:53:01.917Z,51.70
2023-03-06T07:54:02.352Z,51.70
2023-03-06T07:55:02.185Z,51.70
2023-03-06T07:56:01.887Z,54.60
2023-03-06T07:57:02.462Z,54.60
2023-03-06T07:58:02.582Z,54.60
2023-03-06T07:59:02.286Z,54.60
2023-03-06T08:00:02.334Z,54.60
2023-03-06T08:01:02.672Z,54.90
2023-03-06T08:02:02.893Z,54.90
2023-03-06T08:03:03.336Z,54.90
2023-03-06T08:04:02.956Z,54.90
2023-03-06T08:05:02.828Z,54.90
2023-03-06T08:06:03.187Z,50.70
2023-03-06T08:07:03.242Z,50.70
2023-03-06T08:08:03.298Z,50.70
2023-03-06T08:09:03.213Z,50.70
2023-03-06T08:10:03.165Z,50.70
2023-03-06T08:11:03.300Z,53.80
2023-03-06T08:12:03.187Z,53.80
2023-03-06T08:13:03.156Z,53.80
2023-03-06T08:14:03.271Z,53.80
2023-03-06T08:15:03.349Z,53.80
2023-03-06T08:16:03.249Z,55.10
2023-03-06T08:17:02.596Z,55.10
2023-03-06T08:18:02.884Z,55.10
2023-03-06T08:19:02.960Z,55.10
2023-03-06T08:20:02.851Z,55.10
2023-03-06T08:21:02.790Z,55.10
2023-03-06T08:22:03.105Z,55.10
2023-03-06T08:23:03.122Z,55.10
2023-03-06T08:24:03.066Z,55.10
2023-03-06T08:25:02.719Z,55.10
2023-03-06T08:26:03.217Z,57.90
2023-03-06T08:27:02.706Z,57.90
2023-03-06T08:28:02.385Z,57.90
2023-03-06T08:29:02.906Z,57.90
2023-03-06T08:30:02.794Z,57.90
2023-03-06T08:31:02.733Z,54.00
2023-03-06T08:32:03.183Z,54.00
2023-03-06T08:33:02.942Z,54.00
2023-03-06T08:34:02.596Z,54.00
2023-03-06T08:35:02.590Z,54.00
2023-03-06T08:36:02.774Z,51.40
2023-03-06T08:37:02.490Z,51.40
2023-03-06T08:38:02.262Z,51.40
2023-03-06T08:39:02.219Z,51.40
2023-03-06T08:40:01.938Z,51.40
2023-03-06T08:41:02.577Z,47.00
2023-03-06T08:42:02.406Z,47.00
2023-03-06T08:43:02.336Z,47.00
2023-03-06T08:44:02.365Z,47.00
2023-03-06T08:45:02.558Z,47.00
2023-03-06T08:46:02.787Z,47.50
2023-03-06T08:47:03.246Z,47.50
2023-03-06T08:48:03.067Z,47.50
2023-03-06T08:49:02.852Z,47.50
2023-03-06T08:50:02.805Z,47.50
2023-03-06T08:51:03.192Z,47.00
2023-03-06T08:52:03.224Z,47.00
2023-03-06T08:53:03.264Z,47.00
2023-03-06T08:54:03.052Z,47.00
2023-03-06T08:55:02.972Z,47.00
2023-03-06T08:56:02.793Z,53.20
2023-03-06T08:57:02.775Z,53.20
2023-03-06T08:58:02.270Z,53.20
2023-03-06T08:59:02.447Z,53.20
2023-03-06T09:00:02.375Z,53.20
2023-03-06T09:01:02.831Z,52.30
2023-03-06T09:02:03.251Z,52.30
2023-03-06T09:03:02.791Z,52.30
2023-03-06T09:04:03.283Z,52.30
2023-03-06T09:05:02.825Z,52.30
2023-03-06T09:06:02.734Z,54.70
2023-03-06T09:07:03.661Z,54.70
2023-03-06T09:08:03.464Z,54.70
2023-03-06T09:09:03.212Z,54.70
2023-03-06T09:10:03.634Z,54.70
2023-03-06T09:11:03.241Z,54.20
2023-03-06T09:12:02.885Z,54.20
2023-03-06T09:13:02.970Z,54.20
2023-03-06T09:14:02.902Z,54.20
2023-03-06T09:15:02.888Z,54.20
2023-03-06T09:16:02.989Z,55.50
2023-03-06T09:17:02.334Z,55.50
2023-03-06T09:18:02.628Z,55.50
2023-03-06T09:19:02.699Z,55.50
2023-03-06T09:20:02.530Z,55.50
2023-03-06T09:21:02.397Z,57.40
2023-03-06T09:22:03.022Z,57.40
2023-03-06T09:23:03.013Z,57.40
2023-03-06T09:24:03.180Z,57.40
2023-03-06T09:25:03.485Z,57.40
2023-03-06T09:26:03.347Z,56.30
2023-03-06T09:27:02.627Z,56.30
2023-03-06T09:28:11.365Z,56.30
2023-03-06T09:29:02.748Z,56.30
2023-03-06T09:30:02.597Z,56.30
2023-03-06T09:31:03.179Z,54.50
2023-03-06T09:32:02.837Z,54.50
2023-03-06T09:33:02.955Z,54.50
2023-03-06T09:34:03.374Z,54.50
2023-03-06T09:35:03.239Z,54.50
2023-03-06T09:36:03.082Z,50.60
2023-03-06T09:37:02.897Z,50.60
2023-03-06T09:38:03.076Z,50.60
2023-03-06T09:39:03.159Z,50.60
2023-03-06T09:40:03.159Z,50.60
2023-03-06T09:41:03.171Z,48.30
2023-03-06T09:42:02.287Z,48.30
2023-03-06T09:43:02.796Z,48.30
2023-03-06T09:44:02.320Z,48.30
2023-03-06T09:45:02.294Z,48.30
2023-03-06T09:46:02.447Z,51.20
2023-03-06T09:47:02.501Z,51.20
2023-03-06T09:48:02.518Z,51.20
2023-03-06T09:49:02.774Z,51.20
2023-03-06T09:50:02.328Z,51.20
2023-03-06T09:51:02.265Z,46.10
2023-03-06T09:52:02.846Z,46.10
2023-03-06T09:53:03.353Z,46.10
2023-03-06T09:54:03.308Z,46.10
2023-03-06T09:55:03.024Z,46.10
2023-03-06T09:56:03.200Z,47.20
2023-03-06T09:57:02.722Z,47.20
2023-03-06T09:58:02.757Z,47.20
2023-03-06T09:59:02.460Z,47.20
2023-03-06T10:00:04.432Z,47.20
2023-03-06T10:01:02.794Z,45.40
2023-03-06T10:02:02.628Z,45.40
2023-03-06T10:03:02.835Z,45.40
2023-03-06T10:04:02.776Z,45.40
2023-03-06T10:05:03.073Z,45.40
2023-03-06T10:06:03.014Z,53.40
2023-03-06T10:07:02.885Z,53.40
2023-03-06T10:08:03.064Z,53.40
2023-03-06T10:09:03.211Z,53.40
2023-03-06T10:10:03.057Z,53.40
2023-03-06T10:11:03.286Z,49.00
2023-03-06T10:12:03.018Z,49.00
2023-03-06T10:13:03.288Z,49.00
2023-03-06T10:14:03.105Z,49.00
2023-03-06T10:15:02.840Z,49.00
2023-03-06T10:16:03.058Z,50.00
2023-03-06T10:17:03.379Z,50.00
2023-03-06T10:18:03.753Z,50.00
2023-03-06T10:19:03.775Z,50.00
2023-03-06T10:20:03.414Z,50.00
2023-03-06T10:21:18.485Z,48.60
2023-03-06T10:22:03.002Z,48.60
2023-03-06T10:23:05.075Z,48.60
2023-03-06T10:24:02.933Z,48.60
2023-03-06T10:25:03.295Z,48.60
2023-03-06T10:26:03.051Z,49.50
2023-03-06T10:27:02.564Z,49.50
2023-03-06T10:28:02.672Z,49.50
2023-03-06T10:29:02.721Z,49.50
2023-03-06T10:30:03.972Z,49.50
2023-03-06T10:31:02.313Z,51.10
2023-03-06T10:32:03.147Z,51.10
2023-03-06T10:33:03.077Z,51.10
2023-03-06T10:34:03.258Z,51.10
2023-03-06T10:35:03.456Z,51.10
2023-03-06T10:36:03.508Z,50.10
2023-03-06T10:37:02.574Z,50.10
2023-03-06T10:38:02.975Z,50.10
2023-03-06T10:39:03.032Z,50.10
2023-03-06T10:40:02.734Z,50.10
2023-03-06T10:41:02.984Z,47.50
2023-03-06T10:42:02.921Z,47.50
2023-03-06T10:43:11.346Z,47.50
2023-03-06T10:44:02.863Z,47.50
2023-03-06T10:45:02.919Z,47.50
2023-03-06T10:46:02.913Z,46.50
2023-03-06T10:47:03.166Z,46.50
2023-03-06T10:48:03.135Z,46.50
2023-03-06T10:49:03.082Z,46.50
2023-03-06T10:50:02.881Z,46.50
2023-03-06T10:51:09.832Z,43.70
2023-03-06T10:52:02.568Z,43.70
2023-03-06T10:53:02.541Z,43.70
2023-03-06T10:54:02.302Z,43.70
2023-03-06T10:55:02.226Z,43.70
2023-03-06T10:56:02.386Z,43.20
2023-03-06T10:57:03.087Z,43.20
2023-03-06T10:58:03.004Z,43.20
2023-03-06T10:59:02.702Z,43.20
2023-03-06T11:00:02.733Z,43.20
2023-03-06T11:01:03.285Z,35.10
2023-03-06T11:02:02.298Z,35.10
2023-03-06T11:03:01.947Z,35.10
2023-03-06T11:04:01.785Z,35.10
2023-03-06T11:05:02.379Z,35.10
2023-03-06T11:06:01.987Z,33.80
2023-03-06T11:07:02.510Z,33.80
2023-03-06T11:08:02.265Z,33.80
2023-03-06T11:09:02.178Z,33.80
2023-03-06T11:10:02.088Z,33.80
2023-03-06T11:11:02.143Z,31.30
2023-03-06T11:12:02.592Z,31.30
2023-03-06T11:13:02.347Z,31.30
2023-03-06T11:14:02.594Z,31.30
2023-03-06T11:15:02.787Z,31.30
2023-03-06T11:16:02.579Z,33.40
2023-03-06T11:17:02.218Z,33.40
2023-03-06T11:18:02.102Z,33.40
2023-03-06T11:19:01.770Z,33.40
2023-03-06T11:20:02.345Z,33.40
2023-03-06T11:21:02.318Z,34.50
2023-03-06T11:22:02.370Z,34.50
2023-03-06T11:23:02.136Z,34.50
2023-03-06T11:24:01.965Z,34.50
2023-03-06T11:25:02.160Z,34.50
2023-03-06T11:26:01.959Z,30.40
2023-03-06T11:27:02.524Z,30.40
2023-03-06T11:28:02.417Z,30.40
2023-03-06T11:29:02.325Z,30.40
2023-03-06T11:30:02.251Z,30.40
2023-03-06T11:31:02.082Z,35.10
2023-03-06T11:32:02.057Z,35.10
2023-03-06T11:33:01.787Z,35.10
2023-03-06T11:34:01.961Z,35.10
2023-03-06T11:35:01.816Z,35.10
2023-03-06T11:36:01.655Z,34.10
2023-03-06T11:37:02.260Z,34.10
2023-03-06T11:38:02.279Z,34.10
2023-03-06T11:39:01.814Z,34.10
2023-03-06T11:40:01.928Z,34.10
2023-03-06T11:41:02.330Z,35.60
2023-03-06T11:42:02.268Z,35.60
2023-03-06T11:43:01.868Z,35.60
2023-03-06T11:44:02.299Z,35.60
2023-03-06T11:45:03.185Z,35.60
2023-03-06T11:46:01.740Z,37.00
2023-03-06T11:47:02.919Z,37.00
2023-03-06T11:48:02.917Z,37.00
2023-03-06T11:49:02.531Z,37.00
2023-03-06T11:50:02.435Z,37.00
2023-03-06T11:51:03.246Z,35.70
2023-03-06T11:52:02.020Z,35.70
2023-03-06T11:53:02.057Z,35.70
2023-03-06T11:54:01.812Z,35.70
2023-03-06T11:55:01.594Z,35.70
2023-03-06T11:56:01.920Z,33.20
2023-03-06T11:57:02.086Z,33.20
2023-03-06T11:58:01.897Z,33.20
2023-03-06T11:59:01.755Z,33.20
2023-03-06T12:00:01.675Z,33.20
2023-03-06T12:01:02.179Z,33.90
2023-03-06T12:02:02.698Z,33.90
2023-03-06T12:03:02.642Z,33.90
2023-03-06T12:04:02.628Z,33.90
2023-03-06T12:05:02.676Z,33.90
2023-03-06T12:06:02.383Z,30.80
2023-03-06T12:07:02.877Z,30.80
2023-03-06T12:08:02.291Z,30.80
2023-03-06T12:09:02.835Z,30.80
2023-03-06T12:10:02.666Z,30.80
2023-03-06T12:11:02.483Z,33.90
2023-03-06T12:12:01.864Z,33.90
2023-03-06T12:13:02.208Z,33.90
2023-03-06T12:14:04.012Z,33.90
2023-03-06T12:15:02.159Z,33.90
2023-03-06T12:16:02.008Z,33.40
2023-03-06T12:17:01.929Z,33.40
2023-03-06T12:18:02.212Z,33.40
2023-03-06T12:19:02.052Z,33.40
2023-03-06T12:20:02.186Z,33.40
2023-03-06T12:21:02.080Z,30.40
2023-03-06T12:22:02.578Z,30.40
2023-03-06T12:23:14.447Z,30.40
2023-03-06T12:24:02.221Z,30.40
2023-03-06T12:25:02.362Z,30.40
2023-03-06T12:26:01.677Z,30.90
2023-03-06T12:27:01.639Z,30.90
2023-03-06T12:28:01.753Z,30.90
2023-03-06T12:29:02.031Z,30.90
2023-03-06T12:30:02.290Z,30.90
2023-03-06T12:31:01.870Z,32.40
2023-03-06T12:32:02.133Z,32.40
2023-03-06T12:33:02.142Z,32.40
2023-03-06T12:34:02.563Z,32.40
2023-03-06T12:35:04.783Z,32.40
2023-03-06T12:36:02.480Z,29.10
2023-03-06T12:37:02.181Z,29.10
2023-03-06T12:38:01.925Z,29.10
2023-03-06T12:39:01.500Z,29.10
2023-03-06T12:40:01.461Z,29.10
2023-03-06T12:41:01.582Z,26.30
2023-03-06T12:42:02.486Z,26.30
2023-03-06T12:43:02.196Z,26.30
2023-03-06T12:44:02.103Z,26.30
2023-03-06T12:45:02.703Z,26.30
2023-03-06T12:46:02.182Z,30.60
2023-03-06T12:47:02.207Z,30.60
2023-03-06T12:48:01.997Z,30.60
2023-03-06T12:49:01.868Z,30.60
2023-03-06T12:50:01.609Z,30.60
2023-03-06T12:51:01.766Z,29.00
2023-03-06T12:52:01.976Z,29.00
2023-03-06T12:53:01.809Z,29.00